sensor_id;sensor_type;location;lat;lon;timestamp;P1;durP1;ratioP1;P2;durP2;ratioP2
63350;SDS011;54336;51.058;17.040;2022-09-13T00:00:41;214.20;;;28.98;;
63350;SDS011;54336;51.058;17.040;2022-09-13T00:06:34;141.15;;;23.90;;
63350;SDS011;54336;51.058;17.040;2022-09-13T00:12:26;37.25;;;17.00;;
63350;SDS011;54336;51.058;17.040;2022-09-13T00:18:19;69.07;;;18.45;;
63350;SDS011;54336;51.058;17.040;2022-09-13T00:24:12;43.33;;;19.67;;
63350;SDS011;54336;51.058;17.040;2022-09-13T00:30:05;488.80;;;48.80;;
63350;SDS011;54336;51.058;17.040;2022-09-13T00:35:57;335.57;;;41.53;;
63350;SDS011;54336;51.058;17.040;2022-09-13T00:41:49;420.27;;;51.47;;
63350;SDS011;54336;51.058;17.040;2022-09-13T00:53:35;105.85;;;25.98;;
63350;SDS011;54336;51.058;17.040;2022-09-13T00:59:36;36.80;;;19.05;;
63350;SDS011;54336;51.058;17.040;2022-09-13T01:05:33;45.70;;;19.52;;
63350;SDS011;54336;51.058;17.040;2022-09-13T01:11:47;166.77;;;22.70;;
63350;SDS011;54336;51.058;17.040;2022-09-13T01:17:41;187.63;;;25.48;;
63350;SDS011;54336;51.058;17.040;2022-09-13T01:41:54;80.80;;;21.08;;
63350;SDS011;54336;51.058;17.040;2022-09-13T01:48:24;62.70;;;18.77;;
63350;SDS011;54336;51.058;17.040;2022-09-13T02:00:04;58.65;;;18.45;;
63350;SDS011;54336;51.058;17.040;2022-09-13T02:06:05;50.38;;;19.38;;
63350;SDS011;54336;51.058;17.040;2022-09-13T02:12:04;358.92;;;31.90;;
63350;SDS011;54336;51.058;17.040;2022-09-13T02:18:08;35.67;;;16.42;;
63350;SDS011;54336;51.058;17.040;2022-09-13T02:24:06;37.47;;;16.35;;
63350;SDS011;54336;51.058;17.040;2022-09-13T02:30:03;41.10;;;17.40;;
63350;SDS011;54336;51.058;17.040;2022-09-13T02:36:04;36.72;;;16.30;;
63350;SDS011;54336;51.058;17.040;2022-09-13T02:47:59;33.88;;;16.58;;
63350;SDS011;54336;51.058;17.040;2022-09-13T02:59:58;34.35;;;18.08;;
63350;SDS011;54336;51.058;17.040;2022-09-13T03:05:51;35.93;;;16.53;;
63350;SDS011;54336;51.058;17.040;2022-09-13T03:24:15;32.28;;;14.70;;
63350;SDS011;54336;51.058;17.040;2022-09-13T03:30:10;32.38;;;15.80;;
63350;SDS011;54336;51.058;17.040;2022-09-13T03:36:13;27.85;;;15.85;;
63350;SDS011;54336;51.058;17.040;2022-09-13T03:48:20;32.20;;;16.35;;
63350;SDS011;54336;51.058;17.040;2022-09-13T03:54:21;29.73;;;15.98;;
63350;SDS011;54336;51.058;17.040;2022-09-13T04:06:34;27.48;;;15.93;;
63350;SDS011;54336;51.058;17.040;2022-09-13T04:12:26;30.42;;;16.00;;
63350;SDS011;54336;51.058;17.040;2022-09-13T04:18:22;31.38;;;16.70;;
63350;SDS011;54336;51.058;17.040;2022-09-13T04:24:15;31.30;;;15.07;;
63350;SDS011;54336;51.058;17.040;2022-09-13T04:30:07;26.90;;;14.27;;
63350;SDS011;54336;51.058;17.040;2022-09-13T04:35:59;26.08;;;14.07;;
63350;SDS011;54336;51.058;17.040;2022-09-13T04:41:51;28.75;;;14.93;;
63350;SDS011;54336;51.058;17.040;2022-09-13T04:47:49;33.08;;;15.52;;
63350;SDS011;54336;51.058;17.040;2022-09-13T04:53:43;653.30;;;90.07;;
63350;SDS011;54336;51.058;17.040;2022-09-13T04:59:35;514.00;;;61.05;;
63350;SDS011;54336;51.058;17.040;2022-09-13T05:05:27;20.27;;;10.88;;
63350;SDS011;54336;51.058;17.040;2022-09-13T05:11:21;13.95;;;10.23;;
63350;SDS011;54336;51.058;17.040;2022-09-13T05:17:13;14.70;;;9.90;;
63350;SDS011;54336;51.058;17.040;2022-09-13T05:23:05;15.48;;;10.57;;
63350;SDS011;54336;51.058;17.040;2022-09-13T05:28:59;16.27;;;9.27;;
63350;SDS011;54336;51.058;17.040;2022-09-13T05:34:51;12.87;;;9.10;;
63350;SDS011;54336;51.058;17.040;2022-09-13T05:40:43;10.80;;;7.70;;
63350;SDS011;54336;51.058;17.040;2022-09-13T05:46:36;7.45;;;6.50;;
63350;SDS011;54336;51.058;17.040;2022-09-13T05:52:29;9.07;;;6.47;;
63350;SDS011;54336;51.058;17.040;2022-09-13T05:58:21;8.53;;;6.50;;
63350;SDS011;54336;51.058;17.040;2022-09-13T06:04:15;10.20;;;6.38;;
63350;SDS011;54336;51.058;17.040;2022-09-13T06:10:08;11.32;;;4.88;;
63350;SDS011;54336;51.058;17.040;2022-09-13T06:16:01;11.00;;;5.93;;
63350;SDS011;54336;51.058;17.040;2022-09-13T06:21:53;9.10;;;6.00;;
63350;SDS011;54336;51.058;17.040;2022-09-13T06:27:45;7.60;;;5.10;;
63350;SDS011;54336;51.058;17.040;2022-09-13T06:33:42;8.32;;;4.38;;
63350;SDS011;54336;51.058;17.040;2022-09-13T06:39:34;4.97;;;3.60;;
63350;SDS011;54336;51.058;17.040;2022-09-13T06:45:26;4.93;;;3.40;;
63350;SDS011;54336;51.058;17.040;2022-09-13T06:51:20;4.70;;;4.18;;
63350;SDS011;54336;51.058;17.040;2022-09-13T06:57:12;4.15;;;3.72;;
63350;SDS011;54336;51.058;17.040;2022-09-13T07:03:05;4.00;;;3.70;;
63350;SDS011;54336;51.058;17.040;2022-09-13T07:08:58;4.85;;;3.40;;
63350;SDS011;54336;51.058;17.040;2022-09-13T07:14:52;5.03;;;3.03;;
63350;SDS011;54336;51.058;17.040;2022-09-13T07:20:45;7.35;;;3.65;;
63350;SDS011;54336;51.058;17.040;2022-09-13T07:26:37;4.90;;;3.72;;
63350;SDS011;54336;51.058;17.040;2022-09-13T07:32:31;3.95;;;3.55;;
63350;SDS011;54336;51.058;17.040;2022-09-13T07:38:23;6.53;;;3.97;;
63350;SDS011;54336;51.058;17.040;2022-09-13T07:44:15;3.63;;;3.33;;
63350;SDS011;54336;51.058;17.040;2022-09-13T07:50:08;4.30;;;3.38;;
63350;SDS011;54336;51.058;17.040;2022-09-13T07:56:02;4.70;;;3.95;;
63350;SDS011;54336;51.058;17.040;2022-09-13T08:01:55;5.18;;;3.47;;
63350;SDS011;54336;51.058;17.040;2022-09-13T08:07:48;5.65;;;5.15;;
63350;SDS011;54336;51.058;17.040;2022-09-13T08:13:41;6.38;;;4.28;;
63350;SDS011;54336;51.058;17.040;2022-09-13T08:19:34;6.50;;;4.20;;
63350;SDS011;54336;51.058;17.040;2022-09-13T08:25:27;4.47;;;4.07;;
63350;SDS011;54336;51.058;17.040;2022-09-13T08:31:19;4.93;;;4.38;;
63350;SDS011;54336;51.058;17.040;2022-09-13T08:37:13;4.68;;;3.97;;
63350;SDS011;54336;51.058;17.040;2022-09-13T08:43:13;4.05;;;2.80;;
63350;SDS011;54336;51.058;17.040;2022-09-13T08:49:27;3.60;;;3.10;;
63350;SDS011;54336;51.058;17.040;2022-09-13T08:55:27;2.83;;;2.20;;
63350;SDS011;54336;51.058;17.040;2022-09-13T09:01:27;5.07;;;3.20;;
63350;SDS011;54336;51.058;17.040;2022-09-13T09:07:25;2.95;;;2.70;;
63350;SDS011;54336;51.058;17.040;2022-09-13T09:25:13;3.10;;;2.90;;
63350;SDS011;54336;51.058;17.040;2022-09-13T09:31:08;3.88;;;2.95;;
63350;SDS011;54336;51.058;17.040;2022-09-13T09:37:04;2.72;;;2.53;;
63350;SDS011;54336;51.058;17.040;2022-09-13T09:42:59;4.22;;;2.60;;
63350;SDS011;54336;51.058;17.040;2022-09-13T09:48:53;3.85;;;2.58;;
63350;SDS011;54336;51.058;17.040;2022-09-13T09:54:47;3.20;;;2.88;;
63350;SDS011;54336;51.058;17.040;2022-09-13T10:06:41;2.47;;;2.35;;
63350;SDS011;54336;51.058;17.040;2022-09-13T10:12:35;2.92;;;2.70;;
63350;SDS011;54336;51.058;17.040;2022-09-13T10:18:32;3.92;;;2.88;;
63350;SDS011;54336;51.058;17.040;2022-09-13T10:24:41;5.15;;;3.33;;
63350;SDS011;54336;51.058;17.040;2022-09-13T10:30:44;5.43;;;3.63;;
63350;SDS011;54336;51.058;17.040;2022-09-13T10:36:37;4.87;;;3.00;;
63350;SDS011;54336;51.058;17.040;2022-09-13T10:42:57;10.10;;;3.65;;
63350;SDS011;54336;51.058;17.040;2022-09-13T10:48:50;5.10;;;3.13;;
63350;SDS011;54336;51.058;17.040;2022-09-13T10:54:46;6.07;;;3.10;;
63350;SDS011;54336;51.058;17.040;2022-09-13T11:13:13;2.92;;;2.67;;
63350;SDS011;54336;51.058;17.040;2022-09-13T11:43:17;2.75;;;2.55;;
63350;SDS011;54336;51.058;17.040;2022-09-13T11:55:34;4.65;;;3.25;;
63350;SDS011;54336;51.058;17.040;2022-09-13T12:01:32;4.55;;;3.72;;
63350;SDS011;54336;51.058;17.040;2022-09-13T12:07:33;3.42;;;3.05;;
63350;SDS011;54336;51.058;17.040;2022-09-13T12:13:30;4.40;;;3.40;;
63350;SDS011;54336;51.058;17.040;2022-09-13T12:19:24;6.68;;;3.58;;
63350;SDS011;54336;51.058;17.040;2022-09-13T12:25:25;4.03;;;3.72;;
63350;SDS011;54336;51.058;17.040;2022-09-13T12:31:24;4.72;;;3.65;;
63350;SDS011;54336;51.058;17.040;2022-09-13T12:55:16;4.03;;;3.63;;
63350;SDS011;54336;51.058;17.040;2022-09-13T13:01:32;4.80;;;4.30;;
63350;SDS011;54336;51.058;17.040;2022-09-13T13:07:24;5.57;;;3.80;;
63350;SDS011;54336;51.058;17.040;2022-09-13T13:13:22;5.97;;;4.20;;
63350;SDS011;54336;51.058;17.040;2022-09-13T13:19:36;4.65;;;3.67;;
63350;SDS011;54336;51.058;17.040;2022-09-13T13:25:34;4.35;;;3.72;;
63350;SDS011;54336;51.058;17.040;2022-09-13T13:37:27;5.85;;;3.80;;
63350;SDS011;54336;51.058;17.040;2022-09-13T13:55:27;5.55;;;4.22;;
63350;SDS011;54336;51.058;17.040;2022-09-13T14:01:22;4.40;;;3.83;;
63350;SDS011;54336;51.058;17.040;2022-09-13T14:19:25;4.18;;;3.83;;
63350;SDS011;54336;51.058;17.040;2022-09-13T14:25:36;4.40;;;4.00;;
63350;SDS011;54336;51.058;17.040;2022-09-13T14:31:27;8.63;;;7.47;;
63350;SDS011;54336;51.058;17.040;2022-09-13T14:37:22;7.17;;;3.90;;
63350;SDS011;54336;51.058;17.040;2022-09-13T14:43:18;7.30;;;4.80;;
63350;SDS011;54336;51.058;17.040;2022-09-13T14:49:14;4.95;;;4.25;;
63350;SDS011;54336;51.058;17.040;2022-09-13T14:55:13;5.45;;;4.50;;
63350;SDS011;54336;51.058;17.040;2022-09-13T15:01:08;10.15;;;4.38;;
63350;SDS011;54336;51.058;17.040;2022-09-13T15:07:05;5.63;;;4.20;;
63350;SDS011;54336;51.058;17.040;2022-09-13T15:31:32;5.80;;;3.92;;
63350;SDS011;54336;51.058;17.040;2022-09-13T15:37:29;7.60;;;4.53;;
63350;SDS011;54336;51.058;17.040;2022-09-13T15:43:22;5.05;;;4.30;;
63350;SDS011;54336;51.058;17.040;2022-09-13T15:49:16;4.78;;;4.30;;
63350;SDS011;54336;51.058;17.040;2022-09-13T15:55:10;9.88;;;4.70;;
63350;SDS011;54336;51.058;17.040;2022-09-13T16:06:55;9.15;;;4.30;;
63350;SDS011;54336;51.058;17.040;2022-09-13T16:12:48;6.47;;;4.63;;
63350;SDS011;54336;51.058;17.040;2022-09-13T16:18:40;5.50;;;4.70;;
63350;SDS011;54336;51.058;17.040;2022-09-13T16:24:32;4.70;;;4.22;;
63350;SDS011;54336;51.058;17.040;2022-09-13T16:36:21;11.10;;;7.03;;
63350;SDS011;54336;51.058;17.040;2022-09-13T16:48:07;7.88;;;4.90;;
63350;SDS011;54336;51.058;17.040;2022-09-13T16:53:59;8.87;;;5.20;;
63350;SDS011;54336;51.058;17.040;2022-09-13T16:59:52;5.60;;;5.00;;
63350;SDS011;54336;51.058;17.040;2022-09-13T17:05:55;7.05;;;5.32;;
63350;SDS011;54336;51.058;17.040;2022-09-13T17:11:47;6.75;;;5.07;;
63350;SDS011;54336;51.058;17.040;2022-09-13T17:17:39;7.23;;;5.50;;
63350;SDS011;54336;51.058;17.040;2022-09-13T17:23:32;7.13;;;5.35;;
63350;SDS011;54336;51.058;17.040;2022-09-13T17:31:51;9.95;;;5.28;;
63350;SDS011;54336;51.058;17.040;2022-09-13T17:37:44;5.97;;;5.07;;
63350;SDS011;54336;51.058;17.040;2022-09-13T17:43:37;7.70;;;5.57;;
63350;SDS011;54336;51.058;17.040;2022-09-13T17:49:30;6.25;;;5.65;;
63350;SDS011;54336;51.058;17.040;2022-09-13T17:55:23;6.90;;;5.27;;
63350;SDS011;54336;51.058;17.040;2022-09-13T18:01:15;9.63;;;6.45;;
63350;SDS011;54336;51.058;17.040;2022-09-13T18:07:08;8.03;;;5.97;;
63350;SDS011;54336;51.058;17.040;2022-09-13T18:13:01;7.05;;;5.57;;
63350;SDS011;54336;51.058;17.040;2022-09-13T18:18:55;8.60;;;6.10;;
63350;SDS011;54336;51.058;17.040;2022-09-13T18:24:49;10.23;;;6.25;;
63350;SDS011;54336;51.058;17.040;2022-09-13T18:30:49;10.57;;;6.95;;
63350;SDS011;54336;51.058;17.040;2022-09-13T18:36:42;10.10;;;5.95;;
63350;SDS011;54336;51.058;17.040;2022-09-13T18:42:36;11.27;;;6.13;;
63350;SDS011;54336;51.058;17.040;2022-09-13T18:48:36;8.63;;;6.07;;
63350;SDS011;54336;51.058;17.040;2022-09-13T18:54:29;7.93;;;6.07;;
63350;SDS011;54336;51.058;17.040;2022-09-13T19:00:21;7.68;;;6.45;;
63350;SDS011;54336;51.058;17.040;2022-09-13T19:06:18;10.10;;;6.10;;
63350;SDS011;54336;51.058;17.040;2022-09-13T19:12:11;9.48;;;6.65;;
63350;SDS011;54336;51.058;17.040;2022-09-13T19:18:02;8.10;;;6.03;;
63350;SDS011;54336;51.058;17.040;2022-09-13T19:23:55;12.15;;;6.00;;
63350;SDS011;54336;51.058;17.040;2022-09-13T19:29:57;11.55;;;6.60;;
63350;SDS011;54336;51.058;17.040;2022-09-13T19:35:50;9.40;;;6.80;;
63350;SDS011;54336;51.058;17.040;2022-09-13T19:41:44;10.65;;;7.25;;
63350;SDS011;54336;51.058;17.040;2022-09-13T19:47:40;11.35;;;7.35;;
63350;SDS011;54336;51.058;17.040;2022-09-13T19:53:54;11.40;;;7.93;;
63350;SDS011;54336;51.058;17.040;2022-09-13T19:59:49;11.38;;;7.85;;
63350;SDS011;54336;51.058;17.040;2022-09-13T20:05:49;11.57;;;7.70;;
63350;SDS011;54336;51.058;17.040;2022-09-13T20:11:42;11.90;;;8.52;;
63350;SDS011;54336;51.058;17.040;2022-09-13T20:17:47;13.23;;;9.30;;
63350;SDS011;54336;51.058;17.040;2022-09-13T20:23:39;13.27;;;9.43;;
63350;SDS011;54336;51.058;17.040;2022-09-13T20:29:33;11.05;;;8.52;;
63350;SDS011;54336;51.058;17.040;2022-09-13T20:35:25;13.35;;;9.23;;
63350;SDS011;54336;51.058;17.040;2022-09-13T20:41:17;13.00;;;9.65;;
63350;SDS011;54336;51.058;17.040;2022-09-13T20:47:11;17.93;;;9.43;;
63350;SDS011;54336;51.058;17.040;2022-09-13T20:53:04;12.73;;;9.30;;
63350;SDS011;54336;51.058;17.040;2022-09-13T20:58:57;16.10;;;10.50;;
63350;SDS011;54336;51.058;17.040;2022-09-13T21:04:51;15.38;;;11.00;;
63350;SDS011;54336;51.058;17.040;2022-09-13T21:10:43;16.48;;;11.70;;
63350;SDS011;54336;51.058;17.040;2022-09-13T21:16:46;14.47;;;10.90;;
63350;SDS011;54336;51.058;17.040;2022-09-13T21:22:39;13.53;;;10.47;;
63350;SDS011;54336;51.058;17.040;2022-09-13T21:28:32;14.77;;;10.20;;
63350;SDS011;54336;51.058;17.040;2022-09-13T21:34:26;16.90;;;10.57;;
63350;SDS011;54336;51.058;17.040;2022-09-13T21:40:20;20.05;;;10.95;;
63350;SDS011;54336;51.058;17.040;2022-09-13T21:46:13;18.10;;;10.80;;
63350;SDS011;54336;51.058;17.040;2022-09-13T21:52:07;16.27;;;11.63;;
63350;SDS011;54336;51.058;17.040;2022-09-13T21:57:59;19.10;;;11.23;;
63350;SDS011;54336;51.058;17.040;2022-09-13T22:03:54;17.85;;;11.68;;
63350;SDS011;54336;51.058;17.040;2022-09-13T22:09:46;18.85;;;12.50;;
63350;SDS011;54336;51.058;17.040;2022-09-13T22:15:38;20.27;;;12.55;;
63350;SDS011;54336;51.058;17.040;2022-09-13T22:21:32;19.87;;;13.77;;
63350;SDS011;54336;51.058;17.040;2022-09-13T22:27:25;20.75;;;13.27;;
63350;SDS011;54336;51.058;17.040;2022-09-13T22:33:17;19.90;;;13.43;;
63350;SDS011;54336;51.058;17.040;2022-09-13T22:39:10;20.60;;;12.65;;
63350;SDS011;54336;51.058;17.040;2022-09-13T22:45:02;24.60;;;13.70;;
63350;SDS011;54336;51.058;17.040;2022-09-13T22:50:56;23.90;;;13.45;;
63350;SDS011;54336;51.058;17.040;2022-09-13T22:56:50;22.50;;;13.68;;
63350;SDS011;54336;51.058;17.040;2022-09-13T23:02:42;19.90;;;13.57;;
63350;SDS011;54336;51.058;17.040;2022-09-13T23:08:37;21.30;;;13.75;;
63350;SDS011;54336;51.058;17.040;2022-09-13T23:14:30;20.85;;;13.15;;
63350;SDS011;54336;51.058;17.040;2022-09-13T23:20:22;21.85;;;14.30;;
63350;SDS011;54336;51.058;17.040;2022-09-13T23:26:16;23.00;;;14.80;;
63350;SDS011;54336;51.058;17.040;2022-09-13T23:32:08;21.55;;;15.13;;
63350;SDS011;54336;51.058;17.040;2022-09-13T23:38:02;30.50;;;16.30;;
63350;SDS011;54336;51.058;17.040;2022-09-13T23:43:56;19.67;;;14.30;;
63350;SDS011;54336;51.058;17.040;2022-09-13T23:49:49;23.08;;;15.52;;
63350;SDS011;54336;51.058;17.040;2022-09-13T23:55:40;23.13;;;15.02;;
